sensor_id;sensor_type;location;lat;lon;timestamp;P1;durP1;ratioP1;P2;durP2;ratioP2
3901;SDS011;1966;49.908;9.156;2024-02-16T00:01:06;4.20;;;3.73;;
3901;SDS011;1966;49.908;9.156;2024-02-16T00:06:07;6.23;;;4.40;;
3901;SDS011;1966;49.908;9.156;2024-02-16T00:11:06;10.63;;;4.67;;
3901;SDS011;1966;49.908;9.156;2024-02-16T00:16:06;5.13;;;3.80;;
3901;SDS011;1966;49.908;9.156;2024-02-16T00:21:07;4.80;;;3.50;;
3901;SDS011;1966;49.908;9.156;2024-02-16T00:26:06;5.73;;;3.33;;
3901;SDS011;1966;49.908;9.156;2024-02-16T00:31:06;3.50;;;3.20;;
3901;SDS011;1966;49.908;9.156;2024-02-16T00:36:06;4.43;;;3.60;;
3901;SDS011;1966;49.908;9.156;2024-02-16T00:41:08;4.90;;;3.37;;
3901;SDS011;1966;49.908;9.156;2024-02-16T00:46:07;5.03;;;3.30;;
3901;SDS011;1966;49.908;9.156;2024-02-16T00:51:07;4.40;;;3.33;;
3901;SDS011;1966;49.908;9.156;2024-02-16T00:56:07;3.57;;;3.17;;
3901;SDS011;1966;49.908;9.156;2024-02-16T01:01:06;4.70;;;3.00;;
3901;SDS011;1966;49.908;9.156;2024-02-16T01:06:09;4.27;;;3.07;;
3901;SDS011;1966;49.908;9.156;2024-02-16T01:11:09;5.37;;;3.47;;
3901;SDS011;1966;49.908;9.156;2024-02-16T01:16:08;6.10;;;3.90;;
3901;SDS011;1966;49.908;9.156;2024-02-16T01:21:08;4.60;;;3.70;;
3901;SDS011;1966;49.908;9.156;2024-02-16T01:26:08;5.60;;;4.13;;
3901;SDS011;1966;49.908;9.156;2024-02-16T01:31:07;5.83;;;4.43;;
3901;SDS011;1966;49.908;9.156;2024-02-16T01:36:07;7.30;;;3.70;;
3901;SDS011;1966;49.908;9.156;2024-02-16T01:41:08;7.00;;;3.57;;
3901;SDS011;1966;49.908;9.156;2024-02-16T01:46:08;8.47;;;4.00;;
3901;SDS011;1966;49.908;9.156;2024-02-16T01:51:08;6.70;;;4.57;;
3901;SDS011;1966;49.908;9.156;2024-02-16T01:56:09;6.30;;;4.90;;
3901;SDS011;1966;49.908;9.156;2024-02-16T02:01:08;6.07;;;3.83;;
3901;SDS011;1966;49.908;9.156;2024-02-16T02:06:07;5.10;;;3.73;;
3901;SDS011;1966;49.908;9.156;2024-02-16T02:11:06;5.03;;;3.70;;
3901;SDS011;1966;49.908;9.156;2024-02-16T02:16:07;6.27;;;4.30;;
3901;SDS011;1966;49.908;9.156;2024-02-16T02:21:08;10.00;;;4.40;;
3901;SDS011;1966;49.908;9.156;2024-02-16T02:26:09;10.03;;;4.57;;
3901;SDS011;1966;49.908;9.156;2024-02-16T02:31:08;5.60;;;4.80;;
3901;SDS011;1966;49.908;9.156;2024-02-16T02:36:08;5.03;;;4.10;;
3901;SDS011;1966;49.908;9.156;2024-02-16T02:41:07;4.13;;;3.50;;
3901;SDS011;1966;49.908;9.156;2024-02-16T02:46:07;4.77;;;3.70;;
3901;SDS011;1966;49.908;9.156;2024-02-16T02:51:07;5.90;;;4.67;;
3901;SDS011;1966;49.908;9.156;2024-02-16T02:56:07;6.17;;;3.97;;
3901;SDS011;1966;49.908;9.156;2024-02-16T03:01:08;5.47;;;3.97;;
3901;SDS011;1966;49.908;9.156;2024-02-16T03:06:07;7.27;;;3.93;;
3901;SDS011;1966;49.908;9.156;2024-02-16T03:11:06;5.93;;;3.90;;
3901;SDS011;1966;49.908;9.156;2024-02-16T03:16:07;6.13;;;4.40;;
3901;SDS011;1966;49.908;9.156;2024-02-16T03:21:06;5.90;;;3.70;;
3901;SDS011;1966;49.908;9.156;2024-02-16T03:26:12;5.90;;;3.80;;
3901;SDS011;1966;49.908;9.156;2024-02-16T03:31:16;6.33;;;3.50;;
3901;SDS011;1966;49.908;9.156;2024-02-16T03:36:15;5.83;;;3.97;;
3901;SDS011;1966;49.908;9.156;2024-02-16T03:41:14;5.60;;;4.33;;
3901;SDS011;1966;49.908;9.156;2024-02-16T03:46:15;5.10;;;4.60;;
3901;SDS011;1966;49.908;9.156;2024-02-16T03:51:14;3.93;;;3.50;;
3901;SDS011;1966;49.908;9.156;2024-02-16T03:56:17;5.37;;;3.80;;
3901;SDS011;1966;49.908;9.156;2024-02-16T04:01:18;4.10;;;3.70;;
3901;SDS011;1966;49.908;9.156;2024-02-16T04:06:17;9.23;;;4.57;;
3901;SDS011;1966;49.908;9.156;2024-02-16T04:11:17;5.57;;;3.90;;
3901;SDS011;1966;49.908;9.156;2024-02-16T04:16:16;6.20;;;3.33;;
3901;SDS011;1966;49.908;9.156;2024-02-16T04:21:16;3.83;;;3.33;;
3901;SDS011;1966;49.908;9.156;2024-02-16T04:26:16;3.57;;;3.27;;
3901;SDS011;1966;49.908;9.156;2024-02-16T04:31:15;4.57;;;3.60;;
3901;SDS011;1966;49.908;9.156;2024-02-16T04:36:14;5.57;;;3.97;;
3901;SDS011;1966;49.908;9.156;2024-02-16T04:41:15;5.83;;;3.10;;
3901;SDS011;1966;49.908;9.156;2024-02-16T04:46:14;5.13;;;3.50;;
3901;SDS011;1966;49.908;9.156;2024-02-16T04:51:14;4.20;;;3.80;;
3901;SDS011;1966;49.908;9.156;2024-02-16T04:56:13;4.13;;;3.60;;
3901;SDS011;1966;49.908;9.156;2024-02-16T05:01:14;8.57;;;4.50;;
3901;SDS011;1966;49.908;9.156;2024-02-16T05:06:13;4.10;;;3.60;;
3901;SDS011;1966;49.908;9.156;2024-02-16T05:11:13;8.00;;;3.40;;
3901;SDS011;1966;49.908;9.156;2024-02-16T05:16:13;4.10;;;3.40;;
3901;SDS011;1966;49.908;9.156;2024-02-16T05:21:13;3.20;;;2.73;;
3901;SDS011;1966;49.908;9.156;2024-02-16T05:26:12;3.97;;;2.93;;
3901;SDS011;1966;49.908;9.156;2024-02-16T05:31:16;2.97;;;2.63;;
3901;SDS011;1966;49.908;9.156;2024-02-16T05:36:16;3.10;;;2.70;;
3901;SDS011;1966;49.908;9.156;2024-02-16T05:41:18;4.47;;;2.83;;
3901;SDS011;1966;49.908;9.156;2024-02-16T05:46:18;2.97;;;2.50;;
3901;SDS011;1966;49.908;9.156;2024-02-16T05:51:18;6.40;;;4.00;;
3901;SDS011;1966;49.908;9.156;2024-02-16T05:56:17;9.30;;;4.20;;
3901;SDS011;1966;49.908;9.156;2024-02-16T06:01:16;6.03;;;3.90;;
3901;SDS011;1966;49.908;9.156;2024-02-16T06:06:17;4.27;;;3.87;;
3901;SDS011;1966;49.908;9.156;2024-02-16T06:11:16;3.87;;;3.50;;
3901;SDS011;1966;49.908;9.156;2024-02-16T06:16:15;4.93;;;3.77;;
3901;SDS011;1966;49.908;9.156;2024-02-16T06:21:14;4.23;;;3.80;;
3901;SDS011;1966;49.908;9.156;2024-02-16T06:26:15;7.43;;;3.73;;
3901;SDS011;1966;49.908;9.156;2024-02-16T06:31:15;5.40;;;3.87;;
3901;SDS011;1966;49.908;9.156;2024-02-16T06:36:14;7.50;;;3.50;;
3901;SDS011;1966;49.908;9.156;2024-02-16T06:41:13;3.93;;;3.30;;
3901;SDS011;1966;49.908;9.156;2024-02-16T06:46:14;6.50;;;4.40;;
3901;SDS011;1966;49.908;9.156;2024-02-16T06:51:13;5.10;;;3.90;;
3901;SDS011;1966;49.908;9.156;2024-02-16T06:56:12;7.40;;;5.30;;
3901;SDS011;1966;49.908;9.156;2024-02-16T07:01:12;8.60;;;4.87;;
3901;SDS011;1966;49.908;9.156;2024-02-16T07:06:12;6.30;;;4.60;;
3901;SDS011;1966;49.908;9.156;2024-02-16T07:11:12;7.83;;;4.40;;
3901;SDS011;1966;49.908;9.156;2024-02-16T07:16:11;8.60;;;4.67;;
3901;SDS011;1966;49.908;9.156;2024-02-16T07:21:12;11.90;;;6.53;;
3901;SDS011;1966;49.908;9.156;2024-02-16T07:26:11;7.60;;;5.47;;
3901;SDS011;1966;49.908;9.156;2024-02-16T07:31:12;9.20;;;4.50;;
3901;SDS011;1966;49.908;9.156;2024-02-16T07:36:13;6.23;;;4.73;;
3901;SDS011;1966;49.908;9.156;2024-02-16T07:41:13;6.63;;;4.33;;
3901;SDS011;1966;49.908;9.156;2024-02-16T07:46:12;4.80;;;3.83;;
3901;SDS011;1966;49.908;9.156;2024-02-16T07:51:11;5.63;;;3.83;;
3901;SDS011;1966;49.908;9.156;2024-02-16T07:56:12;5.90;;;4.13;;
3901;SDS011;1966;49.908;9.156;2024-02-16T08:01:12;4.90;;;3.63;;
3901;SDS011;1966;49.908;9.156;2024-02-16T08:06:13;6.53;;;3.73;;
3901;SDS011;1966;49.908;9.156;2024-02-16T08:11:14;5.57;;;4.10;;
3901;SDS011;1966;49.908;9.156;2024-02-16T08:16:13;8.13;;;4.67;;
3901;SDS011;1966;49.908;9.156;2024-02-16T08:21:12;7.30;;;4.40;;
3901;SDS011;1966;49.908;9.156;2024-02-16T08:26:11;5.03;;;4.07;;
3901;SDS011;1966;49.908;9.156;2024-02-16T08:31:15;6.33;;;4.77;;
3901;SDS011;1966;49.908;9.156;2024-02-16T08:36:15;5.67;;;4.67;;
3901;SDS011;1966;49.908;9.156;2024-02-16T08:41:15;5.60;;;4.83;;
3901;SDS011;1966;49.908;9.156;2024-02-16T08:46:15;5.77;;;4.70;;
3901;SDS011;1966;49.908;9.156;2024-02-16T08:51:15;6.90;;;5.33;;
3901;SDS011;1966;49.908;9.156;2024-02-16T08:56:14;11.73;;;5.70;;
3901;SDS011;1966;49.908;9.156;2024-02-16T09:01:14;6.23;;;5.00;;
3901;SDS011;1966;49.908;9.156;2024-02-16T09:06:15;6.20;;;4.40;;
3901;SDS011;1966;49.908;9.156;2024-02-16T09:11:16;4.77;;;3.80;;
3901;SDS011;1966;49.908;9.156;2024-02-16T09:16:16;7.07;;;3.93;;
3901;SDS011;1966;49.908;9.156;2024-02-16T09:21:16;5.53;;;3.67;;
3901;SDS011;1966;49.908;9.156;2024-02-16T09:26:16;8.13;;;4.50;;
3901;SDS011;1966;49.908;9.156;2024-02-16T09:31:15;6.23;;;4.70;;
3901;SDS011;1966;49.908;9.156;2024-02-16T09:36:14;12.23;;;4.83;;
3901;SDS011;1966;49.908;9.156;2024-02-16T09:41:15;6.37;;;5.30;;
3901;SDS011;1966;49.908;9.156;2024-02-16T09:46:15;5.80;;;4.50;;
3901;SDS011;1966;49.908;9.156;2024-02-16T09:51:14;10.10;;;5.17;;
3901;SDS011;1966;49.908;9.156;2024-02-16T09:56:15;5.50;;;4.40;;
3901;SDS011;1966;49.908;9.156;2024-02-16T10:01:18;5.90;;;4.40;;
3901;SDS011;1966;49.908;9.156;2024-02-16T10:06:18;6.90;;;4.90;;
3901;SDS011;1966;49.908;9.156;2024-02-16T10:11:21;5.83;;;4.30;;
3901;SDS011;1966;49.908;9.156;2024-02-16T10:16:22;7.70;;;5.30;;
3901;SDS011;1966;49.908;9.156;2024-02-16T10:21:25;9.37;;;5.50;;
3901;SDS011;1966;49.908;9.156;2024-02-16T10:26:28;10.33;;;4.90;;
3901;SDS011;1966;49.908;9.156;2024-02-16T10:31:28;5.47;;;4.30;;
3901;SDS011;1966;49.908;9.156;2024-02-16T10:36:28;8.90;;;4.63;;
3901;SDS011;1966;49.908;9.156;2024-02-16T10:41:30;7.23;;;3.97;;
3901;SDS011;1966;49.908;9.156;2024-02-16T10:46:32;7.70;;;4.67;;
3901;SDS011;1966;49.908;9.156;2024-02-16T10:51:34;7.73;;;4.47;;
3901;SDS011;1966;49.908;9.156;2024-02-16T10:56:35;6.93;;;4.53;;
3901;SDS011;1966;49.908;9.156;2024-02-16T11:01:38;7.07;;;4.63;;
3901;SDS011;1966;49.908;9.156;2024-02-16T11:06:44;6.30;;;4.40;;
3901;SDS011;1966;49.908;9.156;2024-02-16T11:11:51;12.60;;;4.30;;
3901;SDS011;1966;49.908;9.156;2024-02-16T11:16:53;10.70;;;3.63;;
3901;SDS011;1966;49.908;9.156;2024-02-16T11:21:56;8.93;;;3.60;;
3901;SDS011;1966;49.908;9.156;2024-02-16T11:26:57;4.07;;;3.70;;
3901;SDS011;1966;49.908;9.156;2024-02-16T11:31:57;7.00;;;4.00;;
3901;SDS011;1966;49.908;9.156;2024-02-16T11:36:57;4.83;;;3.50;;
3901;SDS011;1966;49.908;9.156;2024-02-16T11:42:01;4.87;;;3.90;;
3901;SDS011;1966;49.908;9.156;2024-02-16T11:47:01;3.97;;;2.80;;
3901;SDS011;1966;49.908;9.156;2024-02-16T11:52:01;5.77;;;3.20;;
3901;SDS011;1966;49.908;9.156;2024-02-16T11:57:04;5.50;;;2.90;;
3901;SDS011;1966;49.908;9.156;2024-02-16T12:02:03;3.83;;;3.10;;
3901;SDS011;1966;49.908;9.156;2024-02-16T12:07:03;3.10;;;2.80;;
3901;SDS011;1966;49.908;9.156;2024-02-16T12:12:04;4.07;;;3.33;;
3901;SDS011;1966;49.908;9.156;2024-02-16T12:17:03;4.30;;;3.00;;
3901;SDS011;1966;49.908;9.156;2024-02-16T12:22:03;5.83;;;3.40;;
3901;SDS011;1966;49.908;9.156;2024-02-16T12:27:04;4.90;;;3.37;;
3901;SDS011;1966;49.908;9.156;2024-02-16T12:32:03;4.63;;;3.37;;
3901;SDS011;1966;49.908;9.156;2024-02-16T12:37:04;8.80;;;3.53;;
3901;SDS011;1966;49.908;9.156;2024-02-16T12:42:04;5.00;;;3.60;;
3901;SDS011;1966;49.908;9.156;2024-02-16T12:47:04;10.03;;;3.60;;
3901;SDS011;1966;49.908;9.156;2024-02-16T12:52:04;4.47;;;3.07;;
3901;SDS011;1966;49.908;9.156;2024-02-16T12:57:11;4.43;;;3.33;;
3901;SDS011;1966;49.908;9.156;2024-02-16T13:02:10;5.33;;;3.30;;
3901;SDS011;1966;49.908;9.156;2024-02-16T13:07:10;5.63;;;3.37;;
3901;SDS011;1966;49.908;9.156;2024-02-16T13:12:10;4.67;;;3.03;;
3901;SDS011;1966;49.908;9.156;2024-02-16T13:17:10;9.03;;;3.23;;
3901;SDS011;1966;49.908;9.156;2024-02-16T13:22:10;5.13;;;2.97;;
3901;SDS011;1966;49.908;9.156;2024-02-16T13:27:11;5.80;;;3.30;;
3901;SDS011;1966;49.908;9.156;2024-02-16T13:32:10;8.70;;;3.10;;
3901;SDS011;1966;49.908;9.156;2024-02-16T13:37:09;5.40;;;3.53;;
3901;SDS011;1966;49.908;9.156;2024-02-16T13:42:10;4.60;;;3.40;;
3901;SDS011;1966;49.908;9.156;2024-02-16T13:47:10;8.50;;;3.43;;
3901;SDS011;1966;49.908;9.156;2024-02-16T13:52:09;6.23;;;3.80;;
3901;SDS011;1966;49.908;9.156;2024-02-16T13:57:08;6.03;;;3.77;;
3901;SDS011;1966;49.908;9.156;2024-02-16T14:02:09;5.20;;;3.37;;
3901;SDS011;1966;49.908;9.156;2024-02-16T14:07:08;6.13;;;4.07;;
3901;SDS011;1966;49.908;9.156;2024-02-16T14:12:08;5.20;;;4.07;;
3901;SDS011;1966;49.908;9.156;2024-02-16T14:17:07;6.23;;;3.80;;
3901;SDS011;1966;49.908;9.156;2024-02-16T14:22:08;6.80;;;3.47;;
3901;SDS011;1966;49.908;9.156;2024-02-16T14:27:09;6.13;;;4.10;;
3901;SDS011;1966;49.908;9.156;2024-02-16T14:32:08;13.73;;;4.50;;
3901;SDS011;1966;49.908;9.156;2024-02-16T14:37:09;9.27;;;3.27;;
3901;SDS011;1966;49.908;9.156;2024-02-16T14:42:08;6.23;;;3.63;;
3901;SDS011;1966;49.908;9.156;2024-02-16T14:47:07;6.80;;;4.00;;
3901;SDS011;1966;49.908;9.156;2024-02-16T14:52:08;6.90;;;4.17;;
3901;SDS011;1966;49.908;9.156;2024-02-16T14:57:08;6.00;;;3.80;;
3901;SDS011;1966;49.908;9.156;2024-02-16T15:02:08;10.60;;;4.40;;
3901;SDS011;1966;49.908;9.156;2024-02-16T15:07:08;7.40;;;4.07;;
3901;SDS011;1966;49.908;9.156;2024-02-16T15:12:08;7.03;;;4.10;;
3901;SDS011;1966;49.908;9.156;2024-02-16T15:17:07;10.33;;;5.50;;
3901;SDS011;1966;49.908;9.156;2024-02-16T15:22:06;4.60;;;4.13;;
3901;SDS011;1966;49.908;9.156;2024-02-16T15:27:07;8.33;;;4.50;;
3901;SDS011;1966;49.908;9.156;2024-02-16T15:32:06;10.63;;;4.77;;
3901;SDS011;1966;49.908;9.156;2024-02-16T15:37:07;13.10;;;5.37;;
3901;SDS011;1966;49.908;9.156;2024-02-16T15:42:07;20.40;;;9.10;;
3901;SDS011;1966;49.908;9.156;2024-02-16T15:47:07;10.20;;;6.70;;
3901;SDS011;1966;49.908;9.156;2024-02-16T15:52:08;10.67;;;6.10;;
3901;SDS011;1966;49.908;9.156;2024-02-16T15:57:09;12.90;;;7.33;;
3901;SDS011;1966;49.908;9.156;2024-02-16T16:02:08;7.60;;;5.47;;
3901;SDS011;1966;49.908;9.156;2024-02-16T16:07:07;8.27;;;4.27;;
3901;SDS011;1966;49.908;9.156;2024-02-16T16:12:10;11.50;;;4.23;;
3901;SDS011;1966;49.908;9.156;2024-02-16T16:17:09;9.70;;;4.40;;
3901;SDS011;1966;49.908;9.156;2024-02-16T16:22:09;6.37;;;4.60;;
3901;SDS011;1966;49.908;9.156;2024-02-16T16:27:08;6.53;;;4.10;;
3901;SDS011;1966;49.908;9.156;2024-02-16T16:32:08;16.23;;;6.47;;
3901;SDS011;1966;49.908;9.156;2024-02-16T16:37:08;8.73;;;5.57;;
3901;SDS011;1966;49.908;9.156;2024-02-16T16:42:07;10.13;;;4.80;;
3901;SDS011;1966;49.908;9.156;2024-02-16T16:47:06;6.37;;;4.40;;
3901;SDS011;1966;49.908;9.156;2024-02-16T16:52:08;7.47;;;5.27;;
3901;SDS011;1966;49.908;9.156;2024-02-16T16:57:09;6.63;;;4.77;;
3901;SDS011;1966;49.908;9.156;2024-02-16T17:02:08;6.40;;;3.67;;
3901;SDS011;1966;49.908;9.156;2024-02-16T17:07:08;7.20;;;3.90;;
3901;SDS011;1966;49.908;9.156;2024-02-16T17:12:08;7.20;;;4.00;;
3901;SDS011;1966;49.908;9.156;2024-02-16T17:17:07;7.37;;;4.63;;
3901;SDS011;1966;49.908;9.156;2024-02-16T17:22:06;7.30;;;4.30;;
3901;SDS011;1966;49.908;9.156;2024-02-16T17:27:07;8.63;;;5.70;;
3901;SDS011;1966;49.908;9.156;2024-02-16T17:32:07;8.33;;;4.43;;
3901;SDS011;1966;49.908;9.156;2024-02-16T17:37:07;5.10;;;4.60;;
3901;SDS011;1966;49.908;9.156;2024-02-16T17:42:08;14.93;;;10.77;;
3901;SDS011;1966;49.908;9.156;2024-02-16T17:47:07;8.47;;;6.33;;
3901;SDS011;1966;49.908;9.156;2024-02-16T17:52:06;9.20;;;4.73;;
3901;SDS011;1966;49.908;9.156;2024-02-16T17:57:06;6.10;;;4.10;;
3901;SDS011;1966;49.908;9.156;2024-02-16T18:02:06;7.87;;;4.87;;
3901;SDS011;1966;49.908;9.156;2024-02-16T18:07:05;7.00;;;5.13;;
3901;SDS011;1966;49.908;9.156;2024-02-16T18:12:08;8.50;;;5.63;;
3901;SDS011;1966;49.908;9.156;2024-02-16T18:17:09;8.20;;;5.30;;
3901;SDS011;1966;49.908;9.156;2024-02-16T18:22:10;11.57;;;5.63;;
3901;SDS011;1966;49.908;9.156;2024-02-16T18:27:10;8.10;;;5.70;;
3901;SDS011;1966;49.908;9.156;2024-02-16T18:32:11;7.07;;;6.00;;
3901;SDS011;1966;49.908;9.156;2024-02-16T18:37:11;10.13;;;5.63;;
3901;SDS011;1966;49.908;9.156;2024-02-16T18:42:10;5.70;;;4.97;;
3901;SDS011;1966;49.908;9.156;2024-02-16T18:47:09;6.30;;;4.60;;
3901;SDS011;1966;49.908;9.156;2024-02-16T18:52:10;12.63;;;8.37;;
3901;SDS011;1966;49.908;9.156;2024-02-16T18:57:10;13.13;;;6.90;;
3901;SDS011;1966;49.908;9.156;2024-02-16T19:02:09;9.53;;;5.50;;
3901;SDS011;1966;49.908;9.156;2024-02-16T19:07:10;9.33;;;5.53;;
3901;SDS011;1966;49.908;9.156;2024-02-16T19:12:11;10.00;;;6.80;;
3901;SDS011;1966;49.908;9.156;2024-02-16T19:17:10;8.57;;;6.20;;
3901;SDS011;1966;49.908;9.156;2024-02-16T19:22:10;7.53;;;6.70;;
3901;SDS011;1966;49.908;9.156;2024-02-16T19:27:10;8.37;;;6.47;;
3901;SDS011;1966;49.908;9.156;2024-02-16T19:32:10;9.70;;;5.70;;
3901;SDS011;1966;49.908;9.156;2024-02-16T19:37:10;14.17;;;6.43;;
3901;SDS011;1966;49.908;9.156;2024-02-16T19:42:09;7.87;;;5.90;;
3901;SDS011;1966;49.908;9.156;2024-02-16T19:47:09;8.70;;;5.57;;
3901;SDS011;1966;49.908;9.156;2024-02-16T19:52:08;9.50;;;7.03;;
3901;SDS011;1966;49.908;9.156;2024-02-16T19:57:09;10.90;;;7.53;;
3901;SDS011;1966;49.908;9.156;2024-02-16T20:02:08;6.57;;;5.97;;
3901;SDS011;1966;49.908;9.156;2024-02-16T20:07:09;8.33;;;6.60;;
3901;SDS011;1966;49.908;9.156;2024-02-16T20:12:10;9.50;;;7.43;;
3901;SDS011;1966;49.908;9.156;2024-02-16T20:17:09;10.20;;;6.40;;
3901;SDS011;1966;49.908;9.156;2024-02-16T20:22:08;8.50;;;6.60;;
3901;SDS011;1966;49.908;9.156;2024-02-16T20:27:07;8.10;;;6.87;;
3901;SDS011;1966;49.908;9.156;2024-02-16T20:32:08;8.77;;;7.50;;
3901;SDS011;1966;49.908;9.156;2024-02-16T20:37:07;7.67;;;6.90;;
3901;SDS011;1966;49.908;9.156;2024-02-16T20:42:06;11.27;;;7.63;;
3901;SDS011;1966;49.908;9.156;2024-02-16T20:47:06;8.67;;;7.13;;
3901;SDS011;1966;49.908;9.156;2024-02-16T20:52:07;9.13;;;7.90;;
3901;SDS011;1966;49.908;9.156;2024-02-16T20:57:06;9.10;;;7.53;;
3901;SDS011;1966;49.908;9.156;2024-02-16T21:02:05;8.60;;;6.80;;
3901;SDS011;1966;49.908;9.156;2024-02-16T21:07:06;7.60;;;6.63;;
3901;SDS011;1966;49.908;9.156;2024-02-16T21:12:05;8.70;;;6.30;;
3901;SDS011;1966;49.908;9.156;2024-02-16T21:17:05;7.17;;;6.47;;
3901;SDS011;1966;49.908;9.156;2024-02-16T21:22:04;7.23;;;6.53;;
3901;SDS011;1966;49.908;9.156;2024-02-16T21:27:05;8.60;;;7.60;;
3901;SDS011;1966;49.908;9.156;2024-02-16T21:32:04;6.80;;;6.20;;
3901;SDS011;1966;49.908;9.156;2024-02-16T21:37:04;7.30;;;6.60;;
3901;SDS011;1966;49.908;9.156;2024-02-16T21:42:04;8.80;;;6.30;;
3901;SDS011;1966;49.908;9.156;2024-02-16T21:47:04;6.90;;;6.20;;
3901;SDS011;1966;49.908;9.156;2024-02-16T21:52:04;7.03;;;6.10;;
3901;SDS011;1966;49.908;9.156;2024-02-16T21:57:05;8.90;;;7.40;;
3901;SDS011;1966;49.908;9.156;2024-02-16T22:02:04;7.80;;;7.00;;
3901;SDS011;1966;49.908;9.156;2024-02-16T22:07:03;8.47;;;7.37;;
3901;SDS011;1966;49.908;9.156;2024-02-16T22:12:03;9.70;;;7.80;;
3901;SDS011;1966;49.908;9.156;2024-02-16T22:17:03;6.93;;;6.03;;
3901;SDS011;1966;49.908;9.156;2024-02-16T22:22:03;6.57;;;5.30;;
3901;SDS011;1966;49.908;9.156;2024-02-16T22:27:02;5.67;;;5.07;;
3901;SDS011;1966;49.908;9.156;2024-02-16T22:32:02;7.03;;;4.87;;
3901;SDS011;1966;49.908;9.156;2024-02-16T22:37:02;4.30;;;3.90;;
3901;SDS011;1966;49.908;9.156;2024-02-16T22:42:02;4.40;;;4.00;;
3901;SDS011;1966;49.908;9.156;2024-02-16T22:47:01;4.57;;;4.13;;
3901;SDS011;1966;49.908;9.156;2024-02-16T22:52:02;6.30;;;4.70;;
3901;SDS011;1966;49.908;9.156;2024-02-16T22:57:02;6.60;;;5.90;;
3901;SDS011;1966;49.908;9.156;2024-02-16T23:02:01;6.37;;;5.70;;
3901;SDS011;1966;49.908;9.156;2024-02-16T23:07:03;6.13;;;5.37;;
3901;SDS011;1966;49.908;9.156;2024-02-16T23:12:03;8.60;;;6.83;;
3901;SDS011;1966;49.908;9.156;2024-02-16T23:17:02;8.23;;;7.03;;
3901;SDS011;1966;49.908;9.156;2024-02-16T23:22:02;8.00;;;6.90;;
3901;SDS011;1966;49.908;9.156;2024-02-16T23:27:02;9.17;;;8.27;;
3901;SDS011;1966;49.908;9.156;2024-02-16T23:32:02;18.23;;;9.03;;
3901;SDS011;1966;49.908;9.156;2024-02-16T23:37:01;13.67;;;9.00;;
3901;SDS011;1966;49.908;9.156;2024-02-16T23:42:02;18.27;;;9.70;;
3901;SDS011;1966;49.908;9.156;2024-02-16T23:47:02;13.30;;;10.20;;
3901;SDS011;1966;49.908;9.156;2024-02-16T23:52:03;11.50;;;9.50;;
3901;SDS011;1966;49.908;9.156;2024-02-16T23:57:03;14.20;;;11.20;;
